Time;durP1;ratioP1;P1;durP2;ratioP2;P2;SDS_P1;SDS_P2;PMS_P1;PMS_P2;Temp;Humidity;BMP_temperature;BMP_pressure;BME280_temperature;BME280_humidity;BME280_pressure;Samples;Min_cycle;Max_cycle;Signal;HPM_P1;HPM_P2
2021/03/31 00:01:40;;;;;;;5.87;3.50;;;14.30;35.60;;;;;;5051968;28;20181;-74
2021/03/31 00:04:06;;;;;;;9.00;3.97;;;14.30;35.60;;;;;;5053182;28;20178;-74
2021/03/31 00:06:32;;;;;;;5.83;3.80;;;14.20;35.70;;;;;;5027566;28;20183;-75
2021/03/31 00:08:57;;;;;;;4.77;3.03;;;14.10;35.90;;;;;;5038937;28;20237;-76
2021/03/31 00:11:24;;;;;;;6.53;4.00;;;14.00;36.00;;;;;;5056275;28;20205;-74
2021/03/31 00:13:50;;;;;;;6.47;3.10;;;14.00;36.20;;;;;;5057298;28;20190;-74
2021/03/31 00:16:16;;;;;;;8.73;3.97;;;13.90;36.30;;;;;;5052652;28;20473;-75
2021/03/31 00:18:41;;;;;;;5.70;3.67;;;13.90;36.50;;;;;;5032761;28;20504;-74
2021/03/31 00:21:07;;;;;;;6.60;3.13;;;13.80;36.60;;;;;;5043651;28;20182;-75
2021/03/31 00:23:33;;;;;;;5.10;3.33;;;13.80;36.70;;;;;;5031469;28;20190;-75
2021/03/31 00:25:59;;;;;;;5.73;3.60;;;13.70;36.90;;;;;;5038149;28;20418;-75
2021/03/31 00:28:26;;;;;;;7.30;4.10;;;13.70;37.00;;;;;;5030959;28;20490;-75
2021/03/31 00:30:53;;;;;;;4.57;3.07;;;13.60;37.00;;;;;;5043086;28;20189;-74
2021/03/31 00:33:19;;;;;;;8.83;4.47;;;13.60;37.60;;;;;;5018488;28;20459;-75
2021/03/31 00:35:45;;;;;;;7.50;3.77;;;13.60;37.20;;;;;;5031202;28;20456;-75
2021/03/31 00:38:11;;;;;;;9.77;4.53;;;13.60;37.30;;;;;;5043923;28;20433;-74
2021/03/31 00:40:44;;;;;;;4.67;3.50;;;13.50;37.40;;;;;;5030633;28;20162;-75
2021/03/31 00:43:10;;;;;;;6.10;3.60;;;13.50;37.50;;;;;;5030952;28;20409;-74
2021/03/31 00:45:37;;;;;;;5.87;3.30;;;13.40;37.60;;;;;;5030626;28;20440;-74
2021/03/31 00:48:03;;;;;;;6.83;4.37;;;13.40;37.80;;;;;;5040759;28;20477;-74
2021/03/31 00:50:29;;;;;;;4.80;3.60;;;13.40;38.00;;;;;;5043277;28;20498;-74
2021/03/31 00:52:56;;;;;;;5.70;3.80;;;13.30;38.50;;;;;;5030548;28;20536;-74
2021/03/31 00:55:26;;;;;;;11.03;3.83;;;13.30;38.10;;;;;;5030461;28;20452;-74
2021/03/31 00:57:52;;;;;;;6.27;3.63;;;13.30;38.30;;;;;;5031203;28;20443;-74
2021/03/31 01:00:19;;;;;;;6.90;3.73;;;13.20;38.40;;;;;;5031815;28;20405;-74
2021/03/31 01:02:45;;;;;;;9.13;4.43;;;13.20;38.60;;;;;;5031837;28;20821;-75
2021/03/31 01:05:23;;;;;;;12.27;4.37;;;13.10;38.70;;;;;;5030229;28;20417;-75
2021/03/31 01:07:49;;;;;;;10.57;3.53;;;13.10;38.90;;;;;;5039905;28;20971;-75
2021/03/31 01:10:19;;;;;;;4.50;3.60;;;13.10;38.90;;;;;;5044311;28;20504;-75
2021/03/31 01:13:17;;;;;;;12.13;3.43;;;13.10;39.00;;;;;;5032145;28;20409;-75
2021/03/31 01:15:49;;;;;;;8.37;4.80;;;13.10;38.90;;;;;;5030309;28;20463;-74
2021/03/31 01:18:36;;;;;;;6.70;3.00;;;13.10;38.80;;;;;;5029396;28;20429;-75
2021/03/31 01:21:34;;;;;;;6.57;3.53;;;13.10;38.80;;;;;;5031831;28;20433;-74
2021/03/31 01:24:26;;;;;;;6.97;3.27;;;13.10;38.70;;;;;;5031694;28;20412;-74
2021/03/31 01:26:58;;;;;;;6.00;3.67;;;13.10;38.50;;;;;;5029045;28;20425;-74
2021/03/31 01:29:29;;;;;;;7.97;4.10;;;13.10;38.40;;;;;;5029495;28;20463;-74
2021/03/31 01:32:20;;;;;;;6.50;3.43;;;13.10;38.40;;;;;;5031664;28;20401;-74
2021/03/31 01:34:56;;;;;;;6.40;3.47;;;13.10;38.40;;;;;;5031847;28;20792;-74
2021/03/31 01:37:23;;;;;;;7.37;3.60;;;13.10;38.30;;;;;;5051678;28;20879;-75
2021/03/31 01:39:52;;;;;;;5.00;3.67;;;13.10;38.40;;;;;;5035060;28;20409;-75
2021/03/31 01:42:19;;;;;;;6.70;3.23;;;13.10;38.40;;;;;;5033769;28;21137;-75
2021/03/31 01:44:47;;;;;;;9.30;3.90;;;13.10;38.40;;;;;;5033946;28;20404;-75
2021/03/31 01:47:17;;;;;;;4.33;3.50;;;13.10;38.50;;;;;;5029709;28;20448;-75
2021/03/31 01:49:43;;;;;;;8.47;4.17;;;13.00;38.70;;;;;;5046499;28;20412;-75
2021/03/31 01:52:11;;;;;;;7.03;3.30;;;13.00;38.80;;;;;;5053988;28;20397;-75
2021/03/31 01:54:42;;;;;;;6.13;3.77;;;12.90;38.90;;;;;;5028630;28;20435;-75
2021/03/31 01:57:09;;;;;;;5.90;3.40;;;12.80;39.10;;;;;;5037636;28;20439;-75
2021/03/31 01:59:36;;;;;;;6.90;3.57;;;12.70;39.30;;;;;;5054550;28;20974;-75
2021/03/31 02:02:03;;;;;;;6.20;3.83;;;12.70;39.50;;;;;;5034539;28;20940;-75
2021/03/31 02:04:32;;;;;;;4.80;4.00;;;12.60;39.50;;;;;;5036792;28;20412;-75
2021/03/31 02:07:03;;;;;;;12.23;4.67;;;12.60;39.60;;;;;;5036596;28;20432;-75
2021/03/31 02:09:30;;;;;;;3.97;3.20;;;12.60;39.70;;;;;;5037359;28;20523;-74
2021/03/31 02:11:59;;;;;;;6.33;3.60;;;12.60;39.70;;;;;;5051772;28;20494;-74
2021/03/31 02:14:30;;;;;;;5.70;3.87;;;12.60;39.70;;;;;;5037093;28;20845;-75
2021/03/31 02:16:57;;;;;;;6.53;4.03;;;12.50;39.80;;;;;;5034546;28;20445;-74
2021/03/31 02:19:23;;;;;;;16.10;3.97;;;12.50;39.90;;;;;;5016443;28;20911;-75
2021/03/31 02:21:51;;;;;;;9.77;4.10;;;12.50;40.00;;;;;;5034516;28;20420;-74
2021/03/31 02:24:21;;;;;;;7.17;4.17;;;12.50;40.10;;;;;;5034328;28;20405;-74
2021/03/31 02:26:47;;;;;;;8.23;3.37;;;12.40;40.20;;;;;;5033610;28;20471;-74
2021/03/31 02:29:13;;;;;;;5.90;3.47;;;12.40;40.40;;;;;;5034314;28;20792;-74
2021/03/31 02:31:41;;;;;;;13.50;3.83;;;12.40;40.50;;;;;;5016466;28;20413;-74
2021/03/31 02:34:07;;;;;;;5.50;3.67;;;12.30;40.60;;;;;;5034462;28;20639;-75
2021/03/31 02:36:34;;;;;;;7.63;4.13;;;12.30;40.90;;;;;;5033975;28;20455;-74
2021/03/31 02:39:01;;;;;;;13.23;4.20;;;12.20;41.00;;;;;;5033949;28;20694;-74
2021/03/31 02:41:28;;;;;;;6.27;3.40;;;12.20;41.20;;;;;;5016425;28;20401;-74
2021/03/31 02:43:55;;;;;;;5.90;3.57;;;12.10;41.30;;;;;;5016078;28;20413;-74
2021/03/31 02:46:23;;;;;;;7.60;3.60;;;12.10;41.50;;;;;;5034027;28;20409;-74
2021/03/31 02:48:51;;;;;;;8.23;3.33;;;12.10;41.80;;;;;;5015626;28;20585;-74
2021/03/31 02:51:19;;;;;;;9.17;3.33;;;12.00;41.80;;;;;;5033711;28;20474;-74
2021/03/31 02:53:45;;;;;;;4.57;3.40;;;12.00;42.00;;;;;;5016126;28;20934;-75
2021/03/31 02:56:12;;;;;;;9.87;4.00;;;11.90;42.10;;;;;;5032943;28;20449;-75
2021/03/31 02:58:43;;;;;;;9.40;4.33;;;11.90;42.20;;;;;;5032425;28;20441;-75
2021/03/31 03:01:09;;;;;;;5.83;3.27;;;11.90;42.30;;;;;;5033958;28;20401;-74
2021/03/31 03:03:36;;;;;;;6.20;4.07;;;11.80;42.30;;;;;;5033503;28;20397;-75
2021/03/31 03:06:03;;;;;;;8.23;4.80;;;11.80;42.60;;;;;;5033387;28;20162;-75
2021/03/31 03:08:30;;;;;;;6.60;3.23;;;11.80;42.70;;;;;;5032115;28;20539;-75
2021/03/31 03:10:58;;;;;;;7.00;4.40;;;11.70;42.90;;;;;;5032812;28;20409;-74
2021/03/31 03:13:25;;;;;;;4.50;3.47;;;11.70;43.00;;;;;;5033426;28;20439;-74
2021/03/31 03:15:51;;;;;;;7.53;4.20;;;11.70;43.20;;;;;;5033525;28;20997;-75
2021/03/31 03:18:17;;;;;;;5.70;3.77;;;11.70;43.20;;;;;;5051467;28;20509;-74
2021/03/31 03:20:42;;;;;;;5.47;3.80;;;11.60;43.30;;;;;;5034025;28;20220;-75
2021/03/31 03:23:09;;;;;;;7.00;4.10;;;11.60;43.50;;;;;;5033393;28;20170;-75
2021/03/31 03:25:36;;;;;;;5.73;3.27;;;11.50;43.60;;;;;;5034937;28;20177;-75
2021/03/31 03:28:03;;;;;;;8.80;4.30;;;11.50;43.70;;;;;;5047669;28;20433;-75
2021/03/31 03:30:31;;;;;;;11.97;4.13;;;11.50;43.80;;;;;;5045924;28;20474;-75
2021/03/31 03:32:58;;;;;;;8.20;4.00;;;11.40;43.80;;;;;;5041169;28;20424;-75
2021/03/31 03:35:27;;;;;;;6.00;4.10;;;11.40;44.00;;;;;;5035237;28;20849;-75
2021/03/31 03:37:54;;;;;;;7.70;4.00;;;11.40;43.90;;;;;;5036126;28;20791;-74
2021/03/31 03:40:25;;;;;;;6.00;3.80;;;11.40;44.10;;;;;;5037199;28;20417;-75
2021/03/31 03:42:52;;;;;;;7.40;3.67;;;11.40;44.00;;;;;;5038494;28;20439;-74
2021/03/31 03:45:20;;;;;;;7.53;3.93;;;11.40;43.80;;;;;;5038419;28;20926;-75
2021/03/31 03:47:46;;;;;;;8.07;4.20;;;11.40;43.60;;;;;;5031798;28;20858;-74
2021/03/31 03:50:14;;;;;;;8.80;4.10;;;11.40;43.50;;;;;;5032720;28;20444;-74
2021/03/31 03:52:42;;;;;;;9.43;3.83;;;11.40;43.50;;;;;;5026370;28;20179;-74
2021/03/31 03:55:08;;;;;;;6.77;4.20;;;11.40;43.50;;;;;;5052436;28;20886;-74
2021/03/31 03:57:34;;;;;;;7.70;4.00;;;11.40;43.60;;;;;;5034072;28;20572;-76
2021/03/31 04:00:00;;;;;;;5.00;3.30;;;11.40;43.50;;;;;;5052051;28;20447;-74
2021/03/31 04:02:25;;;;;;;7.07;4.40;;;11.40;43.40;;;;;;5043705;28;20177;-74
2021/03/31 04:04:51;;;;;;;8.70;4.07;;;11.40;43.30;;;;;;5031033;28;20674;-73
2021/03/31 04:07:17;;;;;;;9.00;3.60;;;11.40;43.10;;;;;;5032315;28;20679;-74
2021/03/31 04:09:46;;;;;;;7.30;4.73;;;11.40;43.00;;;;;;5032728;28;20167;-73
2021/03/31 04:12:13;;;;;;;10.57;4.10;;;11.40;42.90;;;;;;5032910;28;20158;-73
2021/03/31 04:14:42;;;;;;;5.77;3.50;;;11.40;42.80;;;;;;5031959;28;20400;-74
2021/03/31 04:17:11;;;;;;;5.97;4.07;;;11.50;42.70;;;;;;5030919;28;20778;-74
2021/03/31 04:19:39;;;;;;;4.43;3.23;;;11.50;42.70;;;;;;5031259;28;20801;-74
2021/03/31 04:22:05;;;;;;;5.83;3.47;;;11.50;42.60;;;;;;5033083;28;20413;-74
2021/03/31 04:24:31;;;;;;;7.07;4.27;;;11.50;42.60;;;;;;5035046;28;20762;-74
2021/03/31 04:26:59;;;;;;;5.70;3.47;;;11.40;42.60;;;;;;5033788;28;20444;-75
2021/03/31 04:29:25;;;;;;;9.47;4.00;;;11.40;42.60;;;;;;5052077;28;20416;-74
2021/03/31 04:31:51;;;;;;;7.90;3.37;;;11.40;42.60;;;;;;5052316;28;20416;-74
2021/03/31 04:34:19;;;;;;;8.00;3.60;;;11.40;42.60;;;;;;5034123;28;20411;-73
2021/03/31 04:36:45;;;;;;;8.90;4.97;;;11.40;42.60;;;;;;5052874;28;20621;-74
2021/03/31 04:39:11;;;;;;;8.73;3.73;;;11.40;42.70;;;;;;5045071;28;20415;-74
2021/03/31 04:41:36;;;;;;;7.90;3.90;;;11.40;42.70;;;;;;5035439;28;20387;-74
2021/03/31 04:44:03;;;;;;;10.43;4.40;;;11.40;42.70;;;;;;5053272;28;20146;-74
2021/03/31 04:46:29;;;;;;;8.10;3.43;;;11.30;42.70;;;;;;5055443;28;20193;-73
2021/03/31 04:48:55;;;;;;;10.13;4.07;;;11.30;42.70;;;;;;5044631;28;20444;-74
2021/03/31 04:51:20;;;;;;;9.80;4.57;;;11.30;42.80;;;;;;5036763;28;20186;-74
2021/03/31 04:53:46;;;;;;;11.77;4.67;;;11.30;42.90;;;;;;5034867;28;20173;-75
2021/03/31 04:56:12;;;;;;;7.93;4.53;;;11.30;42.90;;;;;;5043379;28;20191;-75
2021/03/31 04:58:38;;;;;;;7.93;4.40;;;11.20;43.10;;;;;;5062782;28;20618;-73
2021/03/31 05:01:04;;;;;;;8.90;4.40;;;11.20;43.00;;;;;;5053575;28;20177;-75
2021/03/31 05:03:29;;;;;;;7.77;4.30;;;11.20;43.20;;;;;;5046053;28;20408;-75
2021/03/31 05:05:55;;;;;;;9.60;3.90;;;11.10;43.30;;;;;;5043619;28;20201;-75
2021/03/31 05:08:21;;;;;;;6.70;4.17;;;11.10;43.30;;;;;;5043600;28;20206;-75
2021/03/31 05:10:47;;;;;;;6.30;3.90;;;11.10;43.30;;;;;;5031070;28;20471;-75
2021/03/31 05:13:13;;;;;;;6.20;4.17;;;11.10;43.20;;;;;;5040195;28;20185;-75
2021/03/31 05:15:39;;;;;;;5.63;4.00;;;11.10;43.10;;;;;;5028924;28;20200;-74
2021/03/31 05:18:05;;;;;;;8.10;4.20;;;11.10;43.00;;;;;;5050239;28;20877;-76
2021/03/31 05:20:31;;;;;;;8.00;3.93;;;11.20;43.00;;;;;;5028818;28;20783;-75
2021/03/31 05:22:56;;;;;;;6.87;3.93;;;11.20;43.00;;;;;;5034653;28;20409;-75
2021/03/31 05:25:22;;;;;;;6.10;3.93;;;11.20;43.00;;;;;;5035335;28;20170;-75
2021/03/31 05:27:48;;;;;;;11.43;4.87;;;11.20;43.00;;;;;;5034402;28;20201;-75
2021/03/31 05:30:14;;;;;;;9.00;4.53;;;11.20;42.90;;;;;;5042555;28;20193;-75
2021/03/31 05:32:40;;;;;;;12.20;4.23;;;11.20;42.90;;;;;;5053901;28;20177;-75
2021/03/31 05:35:07;;;;;;;8.80;3.90;;;11.30;42.80;;;;;;5047914;22;20485;-72
2021/03/31 05:37:33;;;;;;;7.60;4.70;;;11.30;42.70;;;;;;5034259;28;20420;-72
2021/03/31 05:39:59;;;;;;;8.47;3.90;;;11.30;43.10;;;;;;5036871;28;20413;-73
2021/03/31 05:42:25;;;;;;;14.83;4.50;;;11.30;42.30;;;;;;5036075;28;20419;-71
2021/03/31 05:44:51;;;;;;;11.97;4.07;;;11.40;42.10;;;;;;5026288;28;20200;-73
2021/03/31 05:47:38;;;;;;;5.93;3.93;;;11.40;41.90;;;;;;5030022;28;20178;-73
2021/03/31 05:50:07;;;;;;;7.77;3.87;;;11.50;41.70;;;;;;5008338;28;20464;-73
2021/03/31 05:52:33;;;;;;;11.93;3.73;;;11.60;41.50;;;;;;5020585;28;20405;-74
2021/03/31 05:55:02;;;;;;;6.20;4.50;;;11.60;41.40;;;;;;5017600;28;20518;-74
2021/03/31 05:57:33;;;;;;;7.23;4.93;;;11.70;41.50;;;;;;5017183;28;20401;-72
2021/03/31 06:00:01;;;;;;;7.17;3.67;;;11.70;41.30;;;;;;5014348;28;20411;-74
2021/03/31 06:02:28;;;;;;;11.07;4.30;;;11.80;41.20;;;;;;5011631;28;20426;-73
2021/03/31 06:04:54;;;;;;;8.00;4.30;;;11.80;41.10;;;;;;4978092;28;20449;-75
2021/03/31 06:07:20;;;;;;;7.77;4.43;;;11.90;41.10;;;;;;4993386;28;20422;-73
2021/03/31 06:10:05;;;;;;;15.87;3.80;;;11.90;40.90;;;;;;5006495;28;20504;-72
2021/03/31 06:12:33;;;;;;;9.80;4.57;;;11.90;40.70;;;;;;4998029;28;20927;-74
2021/03/31 06:15:17;;;;;;;10.67;4.50;;;12.00;40.70;;;;;;5015754;28;20544;-73
2021/03/31 06:18:09;;;;;;;8.13;3.73;;;12.10;40.50;;;;;;5016744;28;20490;-73
2021/03/31 06:21:00;;;;;;;11.77;4.60;;;12.10;40.40;;;;;;5015432;28;20414;-72
2021/03/31 06:23:38;;;;;;;9.87;4.60;;;12.20;40.30;;;;;;4980467;28;20517;-73
2021/03/31 06:26:20;;;;;;;11.23;4.53;;;12.30;40.20;;;;;;5014103;28;20544;-72
2021/03/31 06:29:02;;;;;;;9.23;4.47;;;12.30;40.10;;;;;;5015059;28;20484;-73
2021/03/31 06:31:33;;;;;;;8.77;4.03;;;12.40;40.00;;;;;;5015648;28;20442;-73
2021/03/31 06:34:04;;;;;;;9.80;4.77;;;12.40;39.80;;;;;;4978652;28;20477;-74
2021/03/31 06:36:50;;;;;;;11.13;4.20;;;12.50;39.70;;;;;;4999759;28;20443;-73
2021/03/31 06:39:18;;;;;;;7.03;4.20;;;12.60;39.60;;;;;;5014405;28;20426;-74
2021/03/31 06:41:52;;;;;;;7.20;3.87;;;12.60;39.50;;;;;;5013943;28;20406;-75
2021/03/31 06:44:35;;;;;;;9.20;4.60;;;12.70;39.40;;;;;;5013676;28;20429;-73
2021/03/31 06:47:20;;;;;;;10.17;5.57;;;12.70;39.40;;;;;;4996513;28;20418;-73
2021/03/31 06:49:48;;;;;;;9.07;4.93;;;12.80;39.20;;;;;;4980179;28;20990;-74
2021/03/31 06:52:13;;;;;;;8.00;4.50;;;12.90;39.10;;;;;;5014080;28;20410;-74
2021/03/31 06:54:51;;;;;;;10.50;4.27;;;13.00;39.00;;;;;;4996780;28;20445;-77
2021/03/31 06:57:27;;;;;;;6.27;4.50;;;13.00;38.90;;;;;;4997059;28;20178;-73
2021/03/31 07:00:06;;;;;;;13.33;5.20;;;13.10;38.80;;;;;;5014100;28;20456;-74
2021/03/31 07:02:33;;;;;;;7.67;4.00;;;13.20;39.20;;;;;;4996556;28;20989;-74
2021/03/31 07:05:00;;;;;;;9.77;5.13;;;13.20;38.50;;;;;;4980225;28;20444;-74
2021/03/31 07:07:37;;;;;;;10.27;4.70;;;13.30;38.50;;;;;;4996636;28;20414;-74
2021/03/31 07:10:09;;;;;;;7.97;4.23;;;13.40;38.40;;;;;;5014629;28;20441;-73
2021/03/31 07:12:45;;;;;;;6.50;4.30;;;13.50;38.00;;;;;;5014481;28;20603;-74
2021/03/31 07:15:13;;;;;;;12.60;4.83;;;13.60;38.00;;;;;;5013682;28;20754;-73
2021/03/31 07:17:42;;;;;;;9.13;4.17;;;13.70;37.90;;;;;;5014432;28;20414;-73
2021/03/31 07:20:10;;;;;;;9.97;5.43;;;13.80;37.80;;;;;;5014671;28;20492;-73
2021/03/31 07:22:36;;;;;;;8.37;5.13;;;13.80;37.60;;;;;;5014515;28;20451;-74
2021/03/31 07:25:03;;;;;;;6.60;4.50;;;13.90;37.50;;;;;;5013728;28;20454;-74
2021/03/31 07:27:31;;;;;;;10.80;4.97;;;14.00;37.40;;;;;;5013355;28;20464;-74
2021/03/31 07:30:05;;;;;;;10.77;5.77;;;14.20;37.40;;;;;;5013829;28;20441;-74
2021/03/31 07:32:57;;;;;;;8.83;5.47;;;14.30;37.20;;;;;;4995912;28;20791;-75
2021/03/31 07:35:26;;;;;;;9.90;5.97;;;14.40;36.80;;;;;;4984080;28;20501;-74
2021/03/31 07:37:52;;;;;;;12.40;5.77;;;14.90;36.80;;;;;;5013396;28;20424;-74
2021/03/31 07:40:19;;;;;;;10.10;5.90;;;16.70;35.20;;;;;;5014120;28;20402;-74
2021/03/31 07:42:56;;;;;;;8.43;5.10;;;18.90;32.80;;;;;;4995312;28;20466;-74
2021/03/31 07:46:12;;;;;;;9.63;5.93;;;20.90;30.30;;;;;;4995592;28;20461;-73
2021/03/31 07:48:39;;;;;;;10.83;5.07;;;22.50;28.60;;;;;;4975850;28;20897;-72
2021/03/31 07:51:28;;;;;;;9.40;5.90;;;23.70;27.30;;;;;;5016776;28;20566;-73
2021/03/31 07:53:58;;;;;;;7.40;5.23;;;24.30;26.40;;;;;;4996529;28;20498;-74
2021/03/31 07:56:33;;;;;;;10.47;5.37;;;24.60;25.90;;;;;;5012818;28;20460;-73
2021/03/31 07:59:02;;;;;;;11.27;6.47;;;25.20;25.50;;;;;;5012840;28;20933;-74
2021/03/31 08:01:58;;;;;;;23.00;8.47;;;25.50;25.20;;;;;;5013812;28;20446;-75
2021/03/31 08:04:26;;;;;;;10.80;6.40;;;26.00;24.90;;;;;;5012773;28;20870;-74
2021/03/31 08:06:56;;;;;;;10.13;6.97;;;26.10;24.10;;;;;;4996285;28;20513;-74
2021/03/31 08:09:29;;;;;;;11.80;6.43;;;26.50;24.20;;;;;;5012940;28;20677;-73
2021/03/31 08:12:06;;;;;;;22.00;7.37;;;26.70;23.80;;;;;;4995766;28;20435;-72
2021/03/31 08:14:32;;;;;;;12.43;7.03;;;27.00;23.40;;;;;;5014104;28;20426;-73
2021/03/31 08:17:01;;;;;;;17.10;9.40;;;27.50;23.10;;;;;;4995751;28;20519;-74
2021/03/31 08:19:31;;;;;;;12.80;8.37;;;28.10;22.50;;;;;;5012886;28;20521;-74
2021/03/31 08:21:59;;;;;;;12.67;8.90;;;27.80;22.50;;;;;;5012759;28;20536;-73
2021/03/31 08:24:46;;;;;;;20.60;9.57;;;28.20;22.30;;;;;;5013276;28;20437;-74
2021/03/31 08:27:13;;;;;;;17.33;8.73;;;28.50;22.10;;;;;;4994681;28;20394;-74
2021/03/31 08:29:42;;;;;;;14.00;9.17;;;28.90;22.10;;;;;;5013368;28;20426;-74
2021/03/31 08:32:09;;;;;;;15.03;8.60;;;29.30;21.50;;;;;;4986814;28;20427;-73
2021/03/31 08:34:37;;;;;;;15.10;9.10;;;29.50;21.80;;;;;;4989391;28;20469;-73
2021/03/31 08:37:07;;;;;;;17.90;7.93;;;29.90;21.20;;;;;;4987873;28;20526;-73
2021/03/31 08:39:34;;;;;;;15.77;9.20;;;30.20;21.00;;;;;;4989441;28;20792;-74
2021/03/31 08:42:00;;;;;;;16.90;9.50;;;30.20;20.60;;;;;;4969406;28;20568;-74
2021/03/31 08:44:39;;;;;;;15.17;9.97;;;30.20;20.60;;;;;;4971212;28;20434;-75
2021/03/31 08:47:26;;;;;;;15.13;8.70;;;29.50;20.90;;;;;;4972045;28;20513;-74
2021/03/31 08:49:58;;;;;;;13.60;9.40;;;29.50;21.20;;;;;;4992595;28;20415;-74
2021/03/31 08:52:32;;;;;;;15.07;8.87;;;29.60;21.30;;;;;;4972656;28;20794;-73
2021/03/31 08:54:58;;;;;;;14.83;9.80;;;30.00;21.00;;;;;;4971758;28;20930;-74
2021/03/31 08:57:30;;;;;;;17.67;9.40;;;30.30;20.30;;;;;;4981480;28;20499;-74
2021/03/31 08:59:58;;;;;;;12.17;8.90;;;30.20;20.40;;;;;;4978602;28;20426;-73
2021/03/31 09:02:43;;;;;;;14.13;9.53;;;30.30;20.40;;;;;;4972502;28;20450;-74
2021/03/31 09:05:12;;;;;;;14.33;8.90;;;30.40;20.50;;;;;;4968935;28;20526;-74
2021/03/31 09:07:37;;;;;;;21.47;7.93;;;30.30;20.30;;;;;;4964638;28;20506;-73
2021/03/31 09:10:10;;;;;;;15.90;8.87;;;30.30;20.10;;;;;;4972282;28;20422;-74
2021/03/31 09:12:36;;;;;;;15.77;9.90;;;30.20;20.60;;;;;;4984357;28;20187;-73
2021/03/31 09:15:02;;;;;;;18.27;9.17;;;30.30;20.30;;;;;;4996345;28;20518;-74
2021/03/31 09:17:31;;;;;;;12.20;8.20;;;30.60;19.80;;;;;;5009818;28;20194;-73
2021/03/31 09:19:59;;;;;;;11.87;7.97;;;30.60;19.70;;;;;;5001487;28;20468;-73
2021/03/31 09:22:28;;;;;;;11.67;8.50;;;30.70;19.80;;;;;;5001929;28;20421;-72
2021/03/31 09:24:55;;;;;;;16.93;9.30;;;30.40;20.00;;;;;;4997879;28;20521;-73
2021/03/31 09:27:26;;;;;;;13.70;8.60;;;30.20;19.90;;;;;;5022603;28;20398;-74
2021/03/31 09:29:56;;;;;;;14.27;8.33;;;30.10;20.10;;;;;;5010603;28;20406;-72
2021/03/31 09:33:14;;;;;;;11.20;8.63;;;30.10;19.90;;;;;;4992695;28;20416;-73
2021/03/31 09:35:15;;;;;;;10.13;7.93;;;29.80;20.40;;;;;;4996708;28;20443;-73
2021/03/31 09:37:42;;;;;;;17.90;9.97;;;30.00;20.00;;;;;;5011069;28;21189;-73
2021/03/31 09:40:09;;;;;;;18.00;10.40;;;30.30;19.90;;;;;;5011493;28;20388;-73
2021/03/31 09:42:40;;;;;;;14.67;7.33;;;30.40;19.70;;;;;;4993255;28;20958;-73
2021/03/31 09:45:15;;;;;;;55.70;36.30;;;30.10;19.70;;;;;;4993889;28;20791;-75
2021/03/31 09:47:42;;;;;;;19.90;9.70;;;30.20;20.20;;;;;;4993949;28;20479;-76
2021/03/31 09:50:10;;;;;;;23.07;10.40;;;30.50;19.60;;;;;;5011665;28;20748;-73
2021/03/31 09:52:36;;;;;;;15.83;8.87;;;30.50;20.10;;;;;;5012635;28;20220;-72
2021/03/31 09:55:08;;;;;;;14.30;9.00;;;30.60;19.40;;;;;;5012829;28;20934;-74
2021/03/31 09:57:39;;;;;;;14.73;9.17;;;30.70;19.20;;;;;;5011757;28;20416;-74
2021/03/31 10:00:14;;;;;;;14.13;8.60;;;30.70;19.40;;;;;;5015045;28;20421;-73
2021/03/31 10:02:42;;;;;;;19.30;10.93;;;30.80;19.30;;;;;;4998292;28;20398;-74
2021/03/31 10:05:12;;;;;;;13.47;9.33;;;30.70;19.40;;;;;;5000286;28;20979;-75
2021/03/31 10:07:38;;;;;;;12.43;8.40;;;30.90;19.20;;;;;;5015169;28;20489;-74
2021/03/31 10:10:06;;;;;;;12.70;8.87;;;31.20;19.00;;;;;;5014689;28;20537;-74
2021/03/31 10:12:34;;;;;;;13.43;8.37;;;31.30;18.70;;;;;;5014138;28;20171;-74
2021/03/31 10:15:04;;;;;;;14.70;8.27;;;31.30;18.40;;;;;;4995778;28;20484;-74
2021/03/31 10:17:32;;;;;;;11.60;7.50;;;30.90;18.70;;;;;;5014191;28;20751;-73
2021/03/31 10:20:14;;;;;;;12.33;7.20;;;30.80;18.80;;;;;;5014085;28;20384;-72
2021/03/31 10:22:41;;;;;;;12.47;8.70;;;30.80;18.80;;;;;;5013122;28;20420;-72
2021/03/31 10:25:21;;;;;;;15.03;7.93;;;30.80;18.90;;;;;;5013386;28;20561;-74
2021/03/31 10:27:47;;;;;;;18.83;7.67;;;30.70;18.70;;;;;;5008036;28;20422;-72
2021/03/31 10:30:30;;;;;;;14.53;7.80;;;30.60;18.60;;;;;;4996910;28;20764;-73
2021/03/31 10:32:57;;;;;;;14.50;8.70;;;30.50;19.00;;;;;;4983633;28;20706;-74
2021/03/31 10:38:22;;;;;;;17.00;8.20;;;30.20;19.20;;;;;;4989352;28;20417;-74
2021/03/31 10:47:04;;;;;;;10.47;7.70;;;27.80;20.60;;;;;;5014542;28;20931;-72
2021/03/31 10:52:02;;;;;;;10.83;7.40;;;26.50;21.80;;;;;;5014204;28;20414;-72
2021/03/31 10:54:28;;;;;;;13.23;7.67;;;26.20;21.90;;;;;;5009963;28;20541;-72
2021/03/31 10:57:04;;;;;;;14.10;6.37;;;25.90;22.30;;;;;;5014300;28;20458;-73
2021/03/31 10:59:31;;;;;;;11.53;7.10;;;25.60;22.40;;;;;;4996179;28;20413;-73
2021/03/31 11:01:56;;;;;;;18.60;7.53;;;25.30;22.50;;;;;;5000304;28;20558;-73
2021/03/31 11:04:23;;;;;;;13.03;6.43;;;25.00;22.90;;;;;;4999914;28;20450;-72
2021/03/31 11:06:49;;;;;;;10.50;6.90;;;24.80;23.00;;;;;;4969520;28;20182;-72
2021/03/31 11:09:14;;;;;;;12.73;6.90;;;24.70;23.10;;;;;;4994669;28;20425;-72
2021/03/31 11:11:40;;;;;;;10.37;5.70;;;24.70;23.60;;;;;;4993723;28;20222;-73
2021/03/31 11:14:06;;;;;;;8.90;6.33;;;24.70;23.30;;;;;;5008861;28;20187;-74
2021/03/31 11:16:34;;;;;;;18.50;7.00;;;24.70;23.40;;;;;;5010128;28;20305;-73
2021/03/31 11:26:54;;;;;;;10.60;6.30;;;24.60;23.70;;;;;;4979664;28;20421;-73
2021/03/31 11:29:20;;;;;;;12.30;6.77;;;24.60;23.70;;;;;;5000912;28;20431;-73
2021/03/31 11:31:46;;;;;;;9.10;5.90;;;24.70;23.80;;;;;;4989661;28;20179;-72
2021/03/31 11:34:11;;;;;;;13.07;6.70;;;24.70;23.70;;;;;;4994677;28;20242;-73
2021/03/31 11:36:37;;;;;;;14.90;6.00;;;24.70;23.70;;;;;;4981819;28;20192;-73
2021/03/31 11:39:05;;;;;;;9.63;5.57;;;24.70;23.70;;;;;;4995185;28;20549;-74
2021/03/31 11:41:31;;;;;;;10.10;5.67;;;24.60;23.60;;;;;;4993461;28;20195;-73
2021/03/31 11:43:56;;;;;;;8.40;5.10;;;24.60;23.40;;;;;;4991631;28;20954;-72
2021/03/31 11:46:22;;;;;;;10.60;6.70;;;24.60;23.60;;;;;;5012043;28;20211;-74
2021/03/31 11:48:48;;;;;;;10.03;5.23;;;24.60;23.50;;;;;;5010744;28;20234;-72
2021/03/31 11:51:14;;;;;;;11.17;5.67;;;24.60;23.60;;;;;;5012342;28;20167;-73
2021/03/31 11:53:40;;;;;;;13.90;5.10;;;24.70;23.80;;;;;;5012254;28;20169;-72
2021/03/31 11:56:06;;;;;;;8.67;4.27;;;24.80;23.40;;;;;;5003388;28;20463;-74
2021/03/31 11:58:32;;;;;;;7.87;4.47;;;24.70;22.20;;;;;;5004314;28;20426;-73
2021/03/31 12:01:01;;;;;;;5.93;3.90;;;24.60;22.20;;;;;;4976491;28;20433;-72
2021/03/31 12:03:26;;;;;;;6.63;3.93;;;24.50;22.20;;;;;;5009173;28;20159;-75
2021/03/31 12:05:52;;;;;;;7.63;4.27;;;24.60;22.20;;;;;;4992380;28;20468;-73
2021/03/31 12:08:19;;;;;;;7.00;3.70;;;24.60;22.50;;;;;;5011802;28;20746;-73
2021/03/31 12:10:45;;;;;;;4.93;3.43;;;24.60;22.50;;;;;;4994456;28;20370;-74
2021/03/31 12:13:10;;;;;;;11.13;3.40;;;24.70;22.20;;;;;;5011264;28;20453;-73
2021/03/31 12:15:36;;;;;;;6.77;2.57;;;24.80;21.90;;;;;;5007521;28;20234;-74
2021/03/31 12:18:02;;;;;;;7.70;3.57;;;24.80;21.70;;;;;;5012470;28;20265;-74
2021/03/31 12:20:27;;;;;;;9.20;3.93;;;24.80;21.50;;;;;;5030530;28;20165;-73
2021/03/31 12:22:53;;;;;;;6.50;3.50;;;24.70;22.10;;;;;;4986583;28;20168;-73
2021/03/31 12:25:21;;;;;;;9.73;4.43;;;24.60;22.30;;;;;;5009346;28;20214;-73
2021/03/31 12:27:48;;;;;;;8.33;3.80;;;24.60;22.30;;;;;;4994370;28;20178;-74
2021/03/31 12:30:15;;;;;;;8.83;3.43;;;24.60;22.10;;;;;;5011906;28;20409;-73
2021/03/31 12:32:41;;;;;;;5.10;3.13;;;24.70;22.20;;;;;;4989853;28;20422;-73
2021/03/31 12:35:08;;;;;;;5.03;3.40;;;24.80;22.10;;;;;;4975499;28;20465;-74
2021/03/31 12:37:35;;;;;;;5.40;3.30;;;24.80;22.10;;;;;;4991891;28;20937;-73
2021/03/31 12:40:02;;;;;;;3.70;2.60;;;24.90;22.10;;;;;;4991306;28;20450;-72
2021/03/31 12:42:28;;;;;;;5.57;3.33;;;25.00;21.90;;;;;;5007740;28;20420;-72
2021/03/31 12:44:53;;;;;;;6.83;3.80;;;25.00;21.90;;;;;;4993215;28;20489;-73
2021/03/31 12:47:21;;;;;;;9.70;3.50;;;25.10;21.90;;;;;;5003780;28;20182;-73
2021/03/31 12:49:48;;;;;;;5.40;4.03;;;25.00;21.70;;;;;;4991493;28;20175;-74
2021/03/31 12:52:19;;;;;;;9.07;3.27;;;25.00;21.80;;;;;;4992335;28;20411;-74
2021/03/31 12:57:19;;;;;;;4.17;2.50;;;25.00;21.80;;;;;;4982651;28;20437;-73
2021/03/31 12:59:45;;;;;;;7.23;3.57;;;25.10;21.80;;;;;;5009468;28;20784;-75
2021/03/31 13:02:10;;;;;;;6.80;3.50;;;25.10;21.90;;;;;;5007690;28;20395;-74
2021/03/31 13:04:36;;;;;;;6.30;3.20;;;25.20;21.90;;;;;;5010827;28;20533;-73
2021/03/31 13:07:03;;;;;;;8.70;3.20;;;25.30;21.70;;;;;;5011308;28;20171;-74
2021/03/31 13:09:29;;;;;;;4.57;2.70;;;25.30;21.50;;;;;;4983960;28;20182;-74
2021/03/31 13:11:56;;;;;;;6.47;2.90;;;25.40;21.50;;;;;;4992472;28;20407;-75
2021/03/31 13:17:36;;;;;;;4.80;3.13;;;25.40;21.40;;;;;;4959674;28;20397;-74
2021/03/31 13:22:57;;;;;;;7.20;3.40;;;25.40;21.60;;;;;;4973846;28;20438;-75